sensor_id;sensor_type;location;lat;lon;timestamp;P1;durP1;ratioP1;P2;durP2;ratioP2
47669;SDS011;33408;52.062;11.722;2022-09-09T00:01:35;7.63;;;4.88;;
47669;SDS011;33408;52.062;11.722;2022-09-09T00:04:09;8.18;;;4.72;;
47669;SDS011;33408;52.062;11.722;2022-09-09T00:06:43;8.20;;;4.63;;
47669;SDS011;33408;52.062;11.722;2022-09-09T00:09:14;5.70;;;3.33;;
47669;SDS011;33408;52.062;11.722;2022-09-09T00:11:43;6.65;;;3.40;;
47669;SDS011;33408;52.062;11.722;2022-09-09T00:14:16;5.75;;;3.13;;
47669;SDS011;33408;52.062;11.722;2022-09-09T00:16:50;5.68;;;3.10;;
47669;SDS011;33408;52.062;11.722;2022-09-09T00:19:23;6.32;;;3.05;;
47669;SDS011;33408;52.062;11.722;2022-09-09T00:21:59;5.28;;;2.47;;
47669;SDS011;33408;52.062;11.722;2022-09-09T00:24:41;6.05;;;2.95;;
47669;SDS011;33408;52.062;11.722;2022-09-09T00:27:13;5.30;;;2.88;;
47669;SDS011;33408;52.062;11.722;2022-09-09T00:29:47;7.10;;;2.88;;
47669;SDS011;33408;52.062;11.722;2022-09-09T00:32:20;5.43;;;3.00;;
47669;SDS011;33408;52.062;11.722;2022-09-09T00:34:48;7.55;;;2.60;;
47669;SDS011;33408;52.062;11.722;2022-09-09T00:37:17;6.75;;;3.25;;
47669;SDS011;33408;52.062;11.722;2022-09-09T00:39:46;5.45;;;3.00;;
47669;SDS011;33408;52.062;11.722;2022-09-09T00:42:17;8.20;;;3.13;;
47669;SDS011;33408;52.062;11.722;2022-09-09T00:47:28;7.10;;;3.05;;
47669;SDS011;33408;52.062;11.722;2022-09-09T00:50:09;6.68;;;3.00;;
47669;SDS011;33408;52.062;11.722;2022-09-09T00:52:56;7.05;;;3.22;;
47669;SDS011;33408;52.062;11.722;2022-09-09T00:55:36;7.18;;;3.38;;
47669;SDS011;33408;52.062;11.722;2022-09-09T00:58:08;5.63;;;3.30;;
47669;SDS011;33408;52.062;11.722;2022-09-09T01:00:38;7.25;;;3.25;;
47669;SDS011;33408;52.062;11.722;2022-09-09T01:03:18;6.38;;;3.45;;
47669;SDS011;33408;52.062;11.722;2022-09-09T01:05:52;5.85;;;2.70;;
47669;SDS011;33408;52.062;11.722;2022-09-09T01:08:28;8.00;;;2.80;;
47669;SDS011;33408;52.062;11.722;2022-09-09T01:11:12;5.65;;;3.00;;
47669;SDS011;33408;52.062;11.722;2022-09-09T01:13:46;6.50;;;3.22;;
47669;SDS011;33408;52.062;11.722;2022-09-09T01:16:18;5.72;;;3.65;;
47669;SDS011;33408;52.062;11.722;2022-09-09T01:18:46;5.10;;;3.03;;
47669;SDS011;33408;52.062;11.722;2022-09-09T01:21:17;4.93;;;2.92;;
47669;SDS011;33408;52.062;11.722;2022-09-09T01:23:58;6.78;;;3.50;;
47669;SDS011;33408;52.062;11.722;2022-09-09T01:26:40;9.75;;;3.10;;
47669;SDS011;33408;52.062;11.722;2022-09-09T01:29:09;8.63;;;3.50;;
47669;SDS011;33408;52.062;11.722;2022-09-09T01:31:38;7.15;;;3.78;;
47669;SDS011;33408;52.062;11.722;2022-09-09T01:34:09;5.75;;;3.40;;
47669;SDS011;33408;52.062;11.722;2022-09-09T01:36:38;7.43;;;3.42;;
47669;SDS011;33408;52.062;11.722;2022-09-09T01:39:08;7.87;;;3.70;;
47669;SDS011;33408;52.062;11.722;2022-09-09T01:41:35;8.23;;;3.90;;
47669;SDS011;33408;52.062;11.722;2022-09-09T01:44:03;11.93;;;4.03;;
47669;SDS011;33408;52.062;11.722;2022-09-09T01:46:31;6.47;;;3.42;;
47669;SDS011;33408;52.062;11.722;2022-09-09T01:48:58;9.20;;;3.97;;
47669;SDS011;33408;52.062;11.722;2022-09-09T01:51:27;6.30;;;3.45;;
47669;SDS011;33408;52.062;11.722;2022-09-09T01:53:54;7.00;;;3.75;;
47669;SDS011;33408;52.062;11.722;2022-09-09T01:56:24;9.70;;;4.03;;
47669;SDS011;33408;52.062;11.722;2022-09-09T01:59:07;9.60;;;4.22;;
47669;SDS011;33408;52.062;11.722;2022-09-09T02:01:46;8.63;;;4.03;;
47669;SDS011;33408;52.062;11.722;2022-09-09T02:04:23;6.38;;;3.63;;
47669;SDS011;33408;52.062;11.722;2022-09-09T02:07:02;5.55;;;3.38;;
47669;SDS011;33408;52.062;11.722;2022-09-09T02:09:35;7.13;;;3.50;;
47669;SDS011;33408;52.062;11.722;2022-09-09T02:12:05;6.63;;;3.60;;
47669;SDS011;33408;52.062;11.722;2022-09-09T02:14:39;8.60;;;3.70;;
47669;SDS011;33408;52.062;11.722;2022-09-09T02:17:08;7.32;;;3.30;;
47669;SDS011;33408;52.062;11.722;2022-09-09T02:19:37;7.10;;;3.20;;
47669;SDS011;33408;52.062;11.722;2022-09-09T02:22:08;6.57;;;3.80;;
47669;SDS011;33408;52.062;11.722;2022-09-09T02:24:36;6.28;;;3.35;;
47669;SDS011;33408;52.062;11.722;2022-09-09T02:27:05;8.57;;;2.75;;
47669;SDS011;33408;52.062;11.722;2022-09-09T02:29:35;6.50;;;3.33;;
47669;SDS011;33408;52.062;11.722;2022-09-09T02:32:07;5.40;;;2.70;;
47669;SDS011;33408;52.062;11.722;2022-09-09T02:34:39;5.22;;;2.92;;
47669;SDS011;33408;52.062;11.722;2022-09-09T02:37:08;5.70;;;2.60;;
47669;SDS011;33408;52.062;11.722;2022-09-09T02:39:37;4.70;;;2.38;;
47669;SDS011;33408;52.062;11.722;2022-09-09T02:42:04;7.15;;;2.63;;
47669;SDS011;33408;52.062;11.722;2022-09-09T02:44:32;6.55;;;2.45;;
47669;SDS011;33408;52.062;11.722;2022-09-09T02:49:50;9.30;;;3.03;;
47669;SDS011;33408;52.062;11.722;2022-09-09T02:52:26;8.43;;;3.00;;
47669;SDS011;33408;52.062;11.722;2022-09-09T02:54:59;4.25;;;2.20;;
47669;SDS011;33408;52.062;11.722;2022-09-09T02:57:35;8.25;;;2.90;;
47669;SDS011;33408;52.062;11.722;2022-09-09T03:00:03;6.57;;;2.80;;
47669;SDS011;33408;52.062;11.722;2022-09-09T03:02:32;7.78;;;2.75;;
47669;SDS011;33408;52.062;11.722;2022-09-09T03:04:58;5.72;;;2.90;;
47669;SDS011;33408;52.062;11.722;2022-09-09T03:07:25;5.15;;;2.40;;
47669;SDS011;33408;52.062;11.722;2022-09-09T03:09:52;5.97;;;2.65;;
47669;SDS011;33408;52.062;11.722;2022-09-09T03:12:19;4.75;;;2.45;;
47669;SDS011;33408;52.062;11.722;2022-09-09T03:14:46;7.10;;;2.65;;
47669;SDS011;33408;52.062;11.722;2022-09-09T03:17:13;5.50;;;2.50;;
47669;SDS011;33408;52.062;11.722;2022-09-09T03:19:41;6.85;;;2.80;;
47669;SDS011;33408;52.062;11.722;2022-09-09T03:22:08;6.82;;;2.75;;
47669;SDS011;33408;52.062;11.722;2022-09-09T03:24:35;8.30;;;3.15;;
47669;SDS011;33408;52.062;11.722;2022-09-09T03:27:02;5.72;;;2.80;;
47669;SDS011;33408;52.062;11.722;2022-09-09T03:29:29;7.78;;;2.95;;
47669;SDS011;33408;52.062;11.722;2022-09-09T03:31:55;8.50;;;3.17;;
47669;SDS011;33408;52.062;11.722;2022-09-09T03:34:22;8.32;;;2.88;;
47669;SDS011;33408;52.062;11.722;2022-09-09T03:36:50;7.03;;;3.13;;
47669;SDS011;33408;52.062;11.722;2022-09-09T03:39:16;6.28;;;3.30;;
47669;SDS011;33408;52.062;11.722;2022-09-09T03:41:43;6.32;;;3.15;;
47669;SDS011;33408;52.062;11.722;2022-09-09T03:44:10;5.60;;;2.47;;
47669;SDS011;33408;52.062;11.722;2022-09-09T03:46:36;7.80;;;3.10;;
47669;SDS011;33408;52.062;11.722;2022-09-09T03:49:03;13.77;;;2.90;;
47669;SDS011;33408;52.062;11.722;2022-09-09T03:51:30;8.50;;;3.47;;
47669;SDS011;33408;52.062;11.722;2022-09-09T03:53:58;6.88;;;3.15;;
47669;SDS011;33408;52.062;11.722;2022-09-09T03:56:25;5.43;;;2.70;;
47669;SDS011;33408;52.062;11.722;2022-09-09T03:58:51;10.35;;;3.40;;
47669;SDS011;33408;52.062;11.722;2022-09-09T04:01:18;7.38;;;3.03;;
47669;SDS011;33408;52.062;11.722;2022-09-09T04:03:44;9.25;;;3.17;;
47669;SDS011;33408;52.062;11.722;2022-09-09T04:06:11;4.60;;;2.60;;
47669;SDS011;33408;52.062;11.722;2022-09-09T04:08:40;7.72;;;3.38;;
47669;SDS011;33408;52.062;11.722;2022-09-09T04:11:08;7.38;;;3.03;;
47669;SDS011;33408;52.062;11.722;2022-09-09T04:13:35;5.97;;;2.90;;
47669;SDS011;33408;52.062;11.722;2022-09-09T04:16:04;8.48;;;3.33;;
47669;SDS011;33408;52.062;11.722;2022-09-09T04:18:31;8.10;;;3.30;;
47669;SDS011;33408;52.062;11.722;2022-09-09T04:20:59;6.53;;;3.00;;
47669;SDS011;33408;52.062;11.722;2022-09-09T04:23:26;7.97;;;3.17;;
47669;SDS011;33408;52.062;11.722;2022-09-09T04:25:55;5.63;;;2.65;;
47669;SDS011;33408;52.062;11.722;2022-09-09T04:28:24;9.43;;;3.17;;
47669;SDS011;33408;52.062;11.722;2022-09-09T04:30:53;8.00;;;3.10;;
47669;SDS011;33408;52.062;11.722;2022-09-09T04:33:20;7.43;;;3.45;;
47669;SDS011;33408;52.062;11.722;2022-09-09T04:35:47;6.32;;;2.80;;
47669;SDS011;33408;52.062;11.722;2022-09-09T04:38:15;8.57;;;3.28;;
47669;SDS011;33408;52.062;11.722;2022-09-09T04:40:42;5.68;;;2.95;;
47669;SDS011;33408;52.062;11.722;2022-09-09T04:43:09;6.75;;;2.90;;
47669;SDS011;33408;52.062;11.722;2022-09-09T04:45:37;9.15;;;3.83;;
47669;SDS011;33408;52.062;11.722;2022-09-09T04:48:05;9.70;;;3.80;;
47669;SDS011;33408;52.062;11.722;2022-09-09T04:50:32;9.02;;;3.67;;
47669;SDS011;33408;52.062;11.722;2022-09-09T04:52:59;7.50;;;3.30;;
47669;SDS011;33408;52.062;11.722;2022-09-09T04:55:26;10.75;;;3.60;;
47669;SDS011;33408;52.062;11.722;2022-09-09T04:57:53;8.05;;;3.40;;
47669;SDS011;33408;52.062;11.722;2022-09-09T05:00:20;10.07;;;4.22;;
47669;SDS011;33408;52.062;11.722;2022-09-09T05:02:48;6.75;;;3.00;;
47669;SDS011;33408;52.062;11.722;2022-09-09T05:05:15;8.23;;;4.03;;
47669;SDS011;33408;52.062;11.722;2022-09-09T05:07:41;6.72;;;3.25;;
47669;SDS011;33408;52.062;11.722;2022-09-09T05:10:08;9.70;;;3.53;;
47669;SDS011;33408;52.062;11.722;2022-09-09T05:12:35;7.63;;;3.70;;
47669;SDS011;33408;52.062;11.722;2022-09-09T05:15:02;6.28;;;3.58;;
47669;SDS011;33408;52.062;11.722;2022-09-09T05:17:29;7.25;;;3.95;;
47669;SDS011;33408;52.062;11.722;2022-09-09T05:19:57;6.55;;;3.17;;
47669;SDS011;33408;52.062;11.722;2022-09-09T05:22:23;9.43;;;3.65;;
47669;SDS011;33408;52.062;11.722;2022-09-09T05:24:50;8.13;;;3.80;;
47669;SDS011;33408;52.062;11.722;2022-09-09T05:27:16;8.93;;;3.30;;
47669;SDS011;33408;52.062;11.722;2022-09-09T05:29:44;8.60;;;4.30;;
47669;SDS011;33408;52.062;11.722;2022-09-09T05:32:11;7.60;;;4.07;;
47669;SDS011;33408;52.062;11.722;2022-09-09T05:34:38;7.95;;;3.83;;
47669;SDS011;33408;52.062;11.722;2022-09-09T05:37:06;8.63;;;4.47;;
47669;SDS011;33408;52.062;11.722;2022-09-09T05:39:33;13.85;;;4.50;;
47669;SDS011;33408;52.062;11.722;2022-09-09T05:42:01;9.88;;;3.80;;
47669;SDS011;33408;52.062;11.722;2022-09-09T05:44:29;8.73;;;4.00;;
47669;SDS011;33408;52.062;11.722;2022-09-09T05:46:55;13.95;;;4.15;;
47669;SDS011;33408;52.062;11.722;2022-09-09T05:49:22;10.95;;;3.92;;
47669;SDS011;33408;52.062;11.722;2022-09-09T05:51:49;10.15;;;5.53;;
47669;SDS011;33408;52.062;11.722;2022-09-09T05:54:17;7.30;;;3.70;;
47669;SDS011;33408;52.062;11.722;2022-09-09T05:56:44;9.40;;;3.75;;
47669;SDS011;33408;52.062;11.722;2022-09-09T05:59:10;7.95;;;3.70;;
47669;SDS011;33408;52.062;11.722;2022-09-09T06:01:37;11.35;;;4.32;;
47669;SDS011;33408;52.062;11.722;2022-09-09T06:04:05;11.63;;;3.75;;
47669;SDS011;33408;52.062;11.722;2022-09-09T06:06:32;8.98;;;3.67;;
47669;SDS011;33408;52.062;11.722;2022-09-09T06:09:04;8.15;;;3.47;;
47669;SDS011;33408;52.062;11.722;2022-09-09T06:11:36;8.40;;;3.50;;
47669;SDS011;33408;52.062;11.722;2022-09-09T06:14:04;9.85;;;3.58;;
47669;SDS011;33408;52.062;11.722;2022-09-09T06:16:31;9.27;;;3.95;;
47669;SDS011;33408;52.062;11.722;2022-09-09T06:18:58;7.38;;;2.78;;
47669;SDS011;33408;52.062;11.722;2022-09-09T06:21:26;6.95;;;3.10;;
47669;SDS011;33408;52.062;11.722;2022-09-09T06:23:55;10.23;;;3.25;;
47669;SDS011;33408;52.062;11.722;2022-09-09T06:26:22;6.82;;;2.97;;
47669;SDS011;33408;52.062;11.722;2022-09-09T06:28:52;7.75;;;2.63;;
47669;SDS011;33408;52.062;11.722;2022-09-09T06:31:20;6.00;;;2.75;;
47669;SDS011;33408;52.062;11.722;2022-09-09T06:33:48;7.95;;;2.75;;
47669;SDS011;33408;52.062;11.722;2022-09-09T06:36:16;8.68;;;2.90;;
47669;SDS011;33408;52.062;11.722;2022-09-09T06:38:45;9.77;;;3.17;;
47669;SDS011;33408;52.062;11.722;2022-09-09T06:41:12;9.35;;;2.72;;
47669;SDS011;33408;52.062;11.722;2022-09-09T06:43:40;6.97;;;2.50;;
47669;SDS011;33408;52.062;11.722;2022-09-09T06:46:08;8.10;;;2.78;;
47669;SDS011;33408;52.062;11.722;2022-09-09T06:48:38;9.20;;;3.33;;
47669;SDS011;33408;52.062;11.722;2022-09-09T06:51:07;7.15;;;2.55;;
47669;SDS011;33408;52.062;11.722;2022-09-09T06:53:36;5.88;;;2.30;;
47669;SDS011;33408;52.062;11.722;2022-09-09T06:56:17;6.28;;;2.63;;
47669;SDS011;33408;52.062;11.722;2022-09-09T06:58:46;5.63;;;2.20;;
47669;SDS011;33408;52.062;11.722;2022-09-09T07:01:15;7.40;;;2.53;;
47669;SDS011;33408;52.062;11.722;2022-09-09T07:03:45;9.63;;;2.70;;
47669;SDS011;33408;52.062;11.722;2022-09-09T07:06:13;6.93;;;2.45;;
47669;SDS011;33408;52.062;11.722;2022-09-09T07:08:42;13.50;;;3.17;;
47669;SDS011;33408;52.062;11.722;2022-09-09T07:11:08;10.90;;;3.40;;
47669;SDS011;33408;52.062;11.722;2022-09-09T07:13:36;6.63;;;2.25;;
47669;SDS011;33408;52.062;11.722;2022-09-09T07:16:03;6.88;;;2.80;;
47669;SDS011;33408;52.062;11.722;2022-09-09T07:18:33;5.55;;;2.08;;
47669;SDS011;33408;52.062;11.722;2022-09-09T07:21:00;6.78;;;2.50;;
47669;SDS011;33408;52.062;11.722;2022-09-09T07:23:28;7.80;;;2.60;;
47669;SDS011;33408;52.062;11.722;2022-09-09T07:25:55;6.65;;;2.13;;
47669;SDS011;33408;52.062;11.722;2022-09-09T07:28:23;7.95;;;2.00;;
47669;SDS011;33408;52.062;11.722;2022-09-09T07:30:54;5.20;;;1.75;;
47669;SDS011;33408;52.062;11.722;2022-09-09T07:33:21;6.50;;;1.92;;
47669;SDS011;33408;52.062;11.722;2022-09-09T07:35:49;9.65;;;2.35;;
47669;SDS011;33408;52.062;11.722;2022-09-09T07:38:16;6.85;;;1.77;;
47669;SDS011;33408;52.062;11.722;2022-09-09T07:40:43;8.23;;;1.65;;
47669;SDS011;33408;52.062;11.722;2022-09-09T07:43:10;6.82;;;2.03;;
47669;SDS011;33408;52.062;11.722;2022-09-09T07:45:37;9.98;;;1.80;;
47669;SDS011;33408;52.062;11.722;2022-09-09T07:48:05;8.80;;;1.88;;
47669;SDS011;33408;52.062;11.722;2022-09-09T07:50:32;6.25;;;1.85;;
47669;SDS011;33408;52.062;11.722;2022-09-09T07:53:01;4.20;;;1.50;;
47669;SDS011;33408;52.062;11.722;2022-09-09T07:55:30;10.13;;;2.40;;
47669;SDS011;33408;52.062;11.722;2022-09-09T07:57:56;6.50;;;1.70;;
47669;SDS011;33408;52.062;11.722;2022-09-09T08:00:23;7.95;;;1.90;;
47669;SDS011;33408;52.062;11.722;2022-09-09T08:02:50;6.43;;;1.95;;
47669;SDS011;33408;52.062;11.722;2022-09-09T08:05:19;3.83;;;1.48;;
47669;SDS011;33408;52.062;11.722;2022-09-09T08:07:45;9.52;;;1.83;;
47669;SDS011;33408;52.062;11.722;2022-09-09T08:10:13;6.03;;;1.80;;
47669;SDS011;33408;52.062;11.722;2022-09-09T08:12:41;7.10;;;2.05;;
47669;SDS011;33408;52.062;11.722;2022-09-09T08:15:07;3.75;;;1.50;;
47669;SDS011;33408;52.062;11.722;2022-09-09T08:17:34;5.88;;;1.67;;
47669;SDS011;33408;52.062;11.722;2022-09-09T08:20:02;6.43;;;1.60;;
47669;SDS011;33408;52.062;11.722;2022-09-09T08:22:31;7.97;;;2.47;;
47669;SDS011;33408;52.062;11.722;2022-09-09T08:24:58;4.35;;;1.30;;
47669;SDS011;33408;52.062;11.722;2022-09-09T08:27:26;5.60;;;1.50;;
47669;SDS011;33408;52.062;11.722;2022-09-09T08:29:53;6.15;;;1.33;;
47669;SDS011;33408;52.062;11.722;2022-09-09T08:32:21;7.28;;;1.98;;
47669;SDS011;33408;52.062;11.722;2022-09-09T08:34:47;4.00;;;1.27;;
47669;SDS011;33408;52.062;11.722;2022-09-09T08:37:14;4.22;;;1.45;;
47669;SDS011;33408;52.062;11.722;2022-09-09T08:39:41;3.88;;;1.42;;
47669;SDS011;33408;52.062;11.722;2022-09-09T08:45:10;6.13;;;1.40;;
47669;SDS011;33408;52.062;11.722;2022-09-09T08:47:49;4.60;;;1.20;;
47669;SDS011;33408;52.062;11.722;2022-09-09T08:50:35;8.13;;;1.48;;
47669;SDS011;33408;52.062;11.722;2022-09-09T08:53:04;4.05;;;1.52;;
47669;SDS011;33408;52.062;11.722;2022-09-09T08:55:37;2.70;;;1.35;;
47669;SDS011;33408;52.062;11.722;2022-09-09T08:58:11;4.60;;;1.38;;
47669;SDS011;33408;52.062;11.722;2022-09-09T09:00:43;9.25;;;1.80;;
47669;SDS011;33408;52.062;11.722;2022-09-09T09:03:19;7.03;;;1.77;;
47669;SDS011;33408;52.062;11.722;2022-09-09T09:05:56;5.25;;;1.30;;
47669;SDS011;33408;52.062;11.722;2022-09-09T09:08:32;5.38;;;1.35;;
47669;SDS011;33408;52.062;11.722;2022-09-09T09:11:06;7.85;;;1.63;;
47669;SDS011;33408;52.062;11.722;2022-09-09T09:13:35;5.68;;;1.52;;
47669;SDS011;33408;52.062;11.722;2022-09-09T09:16:11;4.63;;;1.30;;
47669;SDS011;33408;52.062;11.722;2022-09-09T09:18:44;8.45;;;1.77;;
47669;SDS011;33408;52.062;11.722;2022-09-09T09:21:12;7.95;;;2.03;;
47669;SDS011;33408;52.062;11.722;2022-09-09T09:23:45;7.40;;;2.08;;
47669;SDS011;33408;52.062;11.722;2022-09-09T09:26:17;5.00;;;1.58;;
47669;SDS011;33408;52.062;11.722;2022-09-09T09:28:46;5.60;;;1.40;;
47669;SDS011;33408;52.062;11.722;2022-09-09T09:31:13;4.90;;;1.52;;
47669;SDS011;33408;52.062;11.722;2022-09-09T09:33:43;4.32;;;1.30;;
47669;SDS011;33408;52.062;11.722;2022-09-09T09:36:13;5.65;;;1.92;;
47669;SDS011;33408;52.062;11.722;2022-09-09T09:38:51;5.57;;;1.55;;
47669;SDS011;33408;52.062;11.722;2022-09-09T09:41:28;4.40;;;1.35;;
47669;SDS011;33408;52.062;11.722;2022-09-09T09:43:57;5.82;;;1.35;;
47669;SDS011;33408;52.062;11.722;2022-09-09T09:46:25;5.65;;;1.40;;
47669;SDS011;33408;52.062;11.722;2022-09-09T09:48:59;5.10;;;1.30;;
47669;SDS011;33408;52.062;11.722;2022-09-09T09:51:27;7.63;;;1.58;;
47669;SDS011;33408;52.062;11.722;2022-09-09T09:54:08;7.13;;;1.20;;
47669;SDS011;33408;52.062;11.722;2022-09-09T09:56:41;12.00;;;1.67;;
47669;SDS011;33408;52.062;11.722;2022-09-09T09:59:20;9.20;;;1.58;;
47669;SDS011;33408;52.062;11.722;2022-09-09T10:01:49;6.57;;;1.48;;
47669;SDS011;33408;52.062;11.722;2022-09-09T10:04:17;6.28;;;1.70;;
47669;SDS011;33408;52.062;11.722;2022-09-09T10:06:45;9.00;;;1.50;;
47669;SDS011;33408;52.062;11.722;2022-09-09T10:09:21;4.47;;;1.20;;
47669;SDS011;33408;52.062;11.722;2022-09-09T10:11:52;5.20;;;1.52;;
47669;SDS011;33408;52.062;11.722;2022-09-09T10:14:28;7.03;;;1.50;;
47669;SDS011;33408;52.062;11.722;2022-09-09T10:17:04;6.22;;;1.63;;
47669;SDS011;33408;52.062;11.722;2022-09-09T10:19:42;4.13;;;1.08;;
47669;SDS011;33408;52.062;11.722;2022-09-09T10:22:23;7.18;;;1.98;;
47669;SDS011;33408;52.062;11.722;2022-09-09T10:25:01;5.93;;;1.60;;
47669;SDS011;33408;52.062;11.722;2022-09-09T10:27:41;5.47;;;1.88;;
47669;SDS011;33408;52.062;11.722;2022-09-09T10:30:21;6.75;;;1.15;;
47669;SDS011;33408;52.062;11.722;2022-09-09T10:32:54;4.30;;;1.42;;
47669;SDS011;33408;52.062;11.722;2022-09-09T10:35:31;3.95;;;1.05;;
47669;SDS011;33408;52.062;11.722;2022-09-09T10:38:14;5.78;;;1.63;;
47669;SDS011;33408;52.062;11.722;2022-09-09T10:40:58;11.18;;;1.77;;
47669;SDS011;33408;52.062;11.722;2022-09-09T10:43:47;4.85;;;1.20;;
47669;SDS011;33408;52.062;11.722;2022-09-09T10:46:26;3.97;;;1.00;;
47669;SDS011;33408;52.062;11.722;2022-09-09T10:49:03;3.30;;;0.98;;
47669;SDS011;33408;52.062;11.722;2022-09-09T10:51:43;8.23;;;1.65;;
47669;SDS011;33408;52.062;11.722;2022-09-09T10:54:20;5.68;;;1.30;;
47669;SDS011;33408;52.062;11.722;2022-09-09T10:56:55;6.93;;;1.55;;
47669;SDS011;33408;52.062;11.722;2022-09-09T10:59:25;5.40;;;1.42;;
47669;SDS011;33408;52.062;11.722;2022-09-09T11:01:57;7.90;;;1.60;;
47669;SDS011;33408;52.062;11.722;2022-09-09T11:04:32;5.00;;;0.85;;
47669;SDS011;33408;52.062;11.722;2022-09-09T11:07:05;5.38;;;1.40;;
47669;SDS011;33408;52.062;11.722;2022-09-09T11:09:36;5.30;;;1.15;;
47669;SDS011;33408;52.062;11.722;2022-09-09T11:12:09;5.32;;;1.52;;
47669;SDS011;33408;52.062;11.722;2022-09-09T11:14:42;5.38;;;1.20;;
47669;SDS011;33408;52.062;11.722;2022-09-09T11:17:14;5.40;;;1.10;;
47669;SDS011;33408;52.062;11.722;2022-09-09T11:19:44;5.10;;;0.98;;
47669;SDS011;33408;52.062;11.722;2022-09-09T11:22:15;5.50;;;1.23;;
47669;SDS011;33408;52.062;11.722;2022-09-09T11:24:49;4.20;;;1.02;;
47669;SDS011;33408;52.062;11.722;2022-09-09T11:27:21;2.67;;;0.93;;
47669;SDS011;33408;52.062;11.722;2022-09-09T11:29:57;3.53;;;1.05;;
47669;SDS011;33408;52.062;11.722;2022-09-09T11:35:33;3.00;;;0.95;;
47669;SDS011;33408;52.062;11.722;2022-09-09T11:40:55;4.57;;;1.17;;
47669;SDS011;33408;52.062;11.722;2022-09-09T11:43:25;7.05;;;1.23;;
47669;SDS011;33408;52.062;11.722;2022-09-09T11:45:56;6.18;;;1.40;;
47669;SDS011;33408;52.062;11.722;2022-09-09T11:48:31;7.87;;;1.50;;
47669;SDS011;33408;52.062;11.722;2022-09-09T11:51:02;6.18;;;1.20;;
47669;SDS011;33408;52.062;11.722;2022-09-09T11:53:32;6.38;;;1.50;;
47669;SDS011;33408;52.062;11.722;2022-09-09T11:56:01;5.82;;;1.10;;
47669;SDS011;33408;52.062;11.722;2022-09-09T11:58:30;3.67;;;1.08;;
47669;SDS011;33408;52.062;11.722;2022-09-09T12:01:12;4.72;;;1.13;;
47669;SDS011;33408;52.062;11.722;2022-09-09T12:03:41;7.00;;;1.00;;
47669;SDS011;33408;52.062;11.722;2022-09-09T12:06:15;5.50;;;1.10;;
47669;SDS011;33408;52.062;11.722;2022-09-09T12:08:48;4.53;;;1.45;;
47669;SDS011;33408;52.062;11.722;2022-09-09T12:11:23;4.38;;;1.20;;
47669;SDS011;33408;52.062;11.722;2022-09-09T12:13:52;8.35;;;1.83;;
47669;SDS011;33408;52.062;11.722;2022-09-09T12:16:32;4.38;;;0.82;;
47669;SDS011;33408;52.062;11.722;2022-09-09T12:19:06;3.42;;;0.88;;
47669;SDS011;33408;52.062;11.722;2022-09-09T12:21:41;3.90;;;1.10;;
47669;SDS011;33408;52.062;11.722;2022-09-09T12:24:16;5.03;;;1.10;;
47669;SDS011;33408;52.062;11.722;2022-09-09T12:27:00;6.15;;;1.45;;
47669;SDS011;33408;52.062;11.722;2022-09-09T12:29:36;6.53;;;1.35;;
47669;SDS011;33408;52.062;11.722;2022-09-09T12:32:10;3.30;;;1.15;;
47669;SDS011;33408;52.062;11.722;2022-09-09T12:34:40;4.60;;;1.10;;
47669;SDS011;33408;52.062;11.722;2022-09-09T12:37:14;4.78;;;1.10;;
47669;SDS011;33408;52.062;11.722;2022-09-09T12:39:46;5.03;;;1.13;;
47669;SDS011;33408;52.062;11.722;2022-09-09T12:42:16;10.02;;;1.63;;
47669;SDS011;33408;52.062;11.722;2022-09-09T12:44:50;2.63;;;1.10;;
47669;SDS011;33408;52.062;11.722;2022-09-09T12:47:21;7.90;;;1.20;;
47669;SDS011;33408;52.062;11.722;2022-09-09T12:49:55;8.60;;;1.35;;
47669;SDS011;33408;52.062;11.722;2022-09-09T12:52:23;3.58;;;1.05;;
47669;SDS011;33408;52.062;11.722;2022-09-09T12:54:55;8.70;;;2.00;;
47669;SDS011;33408;52.062;11.722;2022-09-09T12:57:23;3.35;;;1.13;;
47669;SDS011;33408;52.062;11.722;2022-09-09T12:59:52;5.90;;;1.55;;
47669;SDS011;33408;52.062;11.722;2022-09-09T13:02:30;5.43;;;1.50;;
47669;SDS011;33408;52.062;11.722;2022-09-09T13:05:05;3.38;;;1.13;;
47669;SDS011;33408;52.062;11.722;2022-09-09T13:07:33;5.43;;;0.93;;
47669;SDS011;33408;52.062;11.722;2022-09-09T13:09:59;5.43;;;1.20;;
47669;SDS011;33408;52.062;11.722;2022-09-09T13:12:26;6.63;;;1.48;;
47669;SDS011;33408;52.062;11.722;2022-09-09T13:14:53;3.78;;;1.17;;
47669;SDS011;33408;52.062;11.722;2022-09-09T13:17:22;4.40;;;1.15;;
47669;SDS011;33408;52.062;11.722;2022-09-09T13:19:50;6.13;;;1.20;;
47669;SDS011;33408;52.062;11.722;2022-09-09T13:22:29;3.75;;;0.80;;
47669;SDS011;33408;52.062;11.722;2022-09-09T13:24:59;6.18;;;1.52;;
47669;SDS011;33408;52.062;11.722;2022-09-09T13:27:29;4.53;;;1.25;;
47669;SDS011;33408;52.062;11.722;2022-09-09T13:29:57;3.65;;;0.85;;
47669;SDS011;33408;52.062;11.722;2022-09-09T13:32:24;8.73;;;1.45;;
47669;SDS011;33408;52.062;11.722;2022-09-09T13:34:53;5.65;;;1.40;;
47669;SDS011;33408;52.062;11.722;2022-09-09T13:37:23;8.88;;;1.10;;
47669;SDS011;33408;52.062;11.722;2022-09-09T13:39:58;3.63;;;1.10;;
47669;SDS011;33408;52.062;11.722;2022-09-09T13:42:25;4.63;;;0.90;;
47669;SDS011;33408;52.062;11.722;2022-09-09T13:44:54;4.22;;;1.00;;
47669;SDS011;33408;52.062;11.722;2022-09-09T13:47:26;6.90;;;1.33;;
47669;SDS011;33408;52.062;11.722;2022-09-09T13:49:56;3.25;;;0.90;;
47669;SDS011;33408;52.062;11.722;2022-09-09T13:52:24;6.00;;;1.08;;
47669;SDS011;33408;52.062;11.722;2022-09-09T13:54:53;3.08;;;0.90;;
47669;SDS011;33408;52.062;11.722;2022-09-09T13:57:21;4.07;;;0.98;;
47669;SDS011;33408;52.062;11.722;2022-09-09T13:59:50;3.17;;;0.95;;
47669;SDS011;33408;52.062;11.722;2022-09-09T14:02:18;3.47;;;0.93;;
47669;SDS011;33408;52.062;11.722;2022-09-09T14:04:46;4.13;;;1.10;;
47669;SDS011;33408;52.062;11.722;2022-09-09T14:07:16;5.03;;;1.35;;
47669;SDS011;33408;52.062;11.722;2022-09-09T14:09:45;3.58;;;1.20;;
47669;SDS011;33408;52.062;11.722;2022-09-09T14:12:15;4.68;;;1.00;;
47669;SDS011;33408;52.062;11.722;2022-09-09T14:14:43;5.63;;;1.05;;
47669;SDS011;33408;52.062;11.722;2022-09-09T14:17:10;5.63;;;1.17;;
47669;SDS011;33408;52.062;11.722;2022-09-09T14:19:36;13.73;;;1.33;;
47669;SDS011;33408;52.062;11.722;2022-09-09T14:22:03;9.80;;;1.35;;
47669;SDS011;33408;52.062;11.722;2022-09-09T14:24:29;6.55;;;1.08;;
47669;SDS011;33408;52.062;11.722;2022-09-09T14:26:57;8.55;;;1.38;;
47669;SDS011;33408;52.062;11.722;2022-09-09T14:29:24;3.80;;;1.00;;
47669;SDS011;33408;52.062;11.722;2022-09-09T14:31:51;2.60;;;0.65;;
47669;SDS011;33408;52.062;11.722;2022-09-09T14:34:18;2.88;;;0.90;;
47669;SDS011;33408;52.062;11.722;2022-09-09T14:36:45;5.57;;;1.45;;
47669;SDS011;33408;52.062;11.722;2022-09-09T14:39:11;5.47;;;1.30;;
47669;SDS011;33408;52.062;11.722;2022-09-09T14:41:38;4.38;;;1.00;;
47669;SDS011;33408;52.062;11.722;2022-09-09T14:44:06;3.05;;;0.90;;
47669;SDS011;33408;52.062;11.722;2022-09-09T14:46:33;2.55;;;0.93;;
47669;SDS011;33408;52.062;11.722;2022-09-09T14:49:00;2.50;;;0.63;;
47669;SDS011;33408;52.062;11.722;2022-09-09T14:51:26;3.60;;;0.95;;
47669;SDS011;33408;52.062;11.722;2022-09-09T14:53:53;3.40;;;0.77;;
47669;SDS011;33408;52.062;11.722;2022-09-09T14:56:22;3.22;;;0.90;;
47669;SDS011;33408;52.062;11.722;2022-09-09T14:58:50;3.17;;;0.80;;
47669;SDS011;33408;52.062;11.722;2022-09-09T15:01:19;1.75;;;0.50;;
47669;SDS011;33408;52.062;11.722;2022-09-09T15:03:48;2.40;;;0.60;;
47669;SDS011;33408;52.062;11.722;2022-09-09T15:06:16;3.38;;;0.75;;